Darwin International Airport
YPDN : now visible

Aeroporto :











RITROVATECI SU...

 
LOGIN :

Iscrizione | Disclaimer

   EN    FR    IT 

 









Sommario :    VFR   VFR Marginale   IFR   IFR Intensivo   IFR Molto Intensivo
Visibilità : 
Base nubi : 
>= 8 km
>= 3000ft
5 / 8 km
1000 / 3000 ft
1500m / 5 km
500 / 1000 ft
800 / 1500m
200 / 500 ft
< 800m
< 200 ft
Simboli :   Temporali  Nebbia  Neve Forte  Precipitazioni Forti  Vento > 20 kt






- Altitudine del aeroporto : 103 ft
- Codice IATA : DRW


YPDN - Darwin International

ULTIMO METAR :
  • 291200Z 10003KT 9999 FEW018 BKN240 28/26 Q1008

METARs OBSOLETI :
  • 291130Z 13003KT 9999 FEW018 BKN250 28/26 Q1007
  • 291100Z 11004KT 9999 FEW013 SCT160 BKN250 28/26 Q1007
  • 291030Z 09003KT 9999 FEW018 BKN250 28/26 Q1007 NOSIG RMK USE TAF FOR ARRIVALS AFTER 1230Z
  • 291000Z 10003KT 9999 FEW018 OVC250 28/26 Q1007
  • 290930Z 13001KT 9999 FEW019 BKN260 28/25 Q1006 NOSIG

TAF AMD TAF YPDN
Valido dal 29 a 12 ore il 01 a 18 ore UTC


291130Z 2912/0118 01005KT 9999 SCT015
FM010000 34010KT 9999 SCT020
FM011500 VRB03KT 9999 SCT015
PROB30
TEMPO 0103/0108 VRB20G30KT 2000 TSRA BKN015 FEW020CB



MetMap, La meteo Aeronautica in un colpo d'occhio ! - Copyright ORBIFLY Dicembre 2007 - Disclaimer

ORBIFLY MET'MAP TEAM :

Programmazione e sviluppo : Alexandra Zaïnal
Concezione : Baudouin d'Aumeries
Aiuto per la programmazione : Marc-Olivier Méhu
Supporto tecnico e logistico : Manuel Goepfert
Aiuto per la traduzione : Arnaldo La Scala

Contatto : metmap@orbifly.com




FONTI E CREDITI :

   NOAA       Earth
Advisory